createdAt,value
2022-10-02T00:01:22.383Z,86.24
2022-10-02T00:03:51.451Z,86.43
2022-10-02T00:06:25.242Z,86.11
2022-10-02T00:09:01.184Z,86.48
2022-10-02T00:11:38.735Z,86.69
2022-10-02T00:14:13.600Z,87.16
2022-10-02T00:16:45.491Z,87.18
2022-10-02T00:19:18.126Z,87.39
2022-10-02T00:22:00.971Z,87.46
2022-10-02T00:24:38.538Z,87.85
2022-10-02T00:27:19.443Z,87.77
2022-10-02T00:29:52.691Z,87.93
2022-10-02T00:32:30.703Z,88.12
2022-10-02T00:35:33.721Z,87.89
2022-10-02T00:38:12.672Z,88.26
2022-10-02T00:41:06.084Z,88.28
2022-10-02T00:43:44.895Z,88.18
2022-10-02T00:46:30.196Z,88.40
2022-10-02T00:49:23.551Z,88.50
2022-10-02T00:52:03.171Z,88.21
2022-10-02T00:54:48.662Z,88.44
2022-10-02T00:57:35.089Z,88.00
2022-10-02T01:00:10.071Z,88.52
2022-10-02T01:03:01.900Z,88.36
2022-10-02T01:05:30.712Z,88.56
2022-10-02T01:07:59.401Z,89.04
2022-10-02T01:10:30.112Z,88.89
2022-10-02T01:13:00.194Z,89.30
2022-10-02T01:15:35.260Z,89.04
2022-10-02T01:18:04.653Z,89.47
2022-10-02T01:20:39.860Z,89.33
2022-10-02T01:23:17.943Z,89.41
2022-10-02T01:25:48.473Z,89.30
2022-10-02T01:28:17.338Z,89.46
2022-10-02T01:30:50.560Z,89.38
2022-10-02T01:33:20.234Z,88.70
2022-10-02T01:35:49.284Z,88.43
2022-10-02T01:38:22.893Z,88.12
2022-10-02T01:40:53.130Z,87.88
2022-10-02T01:43:25.243Z,87.82
2022-10-02T01:46:02.965Z,87.36
2022-10-02T01:48:45.552Z,87.68
2022-10-02T01:51:33.682Z,87.41
2022-10-02T01:54:16.461Z,87.52
2022-10-02T01:56:57.021Z,87.81
2022-10-02T01:59:40.541Z,88.20
2022-10-02T02:02:16.860Z,88.21
2022-10-02T02:04:54.695Z,88.27
2022-10-02T02:07:45.611Z,88.49
2022-10-02T02:10:21.794Z,88.08
2022-10-02T02:12:59.672Z,88.34
2022-10-02T02:15:36.192Z,88.36
2022-10-02T02:18:13.310Z,87.92
2022-10-02T02:20:48.212Z,88.23
2022-10-02T02:23:21.554Z,88.24
2022-10-02T02:25:55.630Z,88.17
2022-10-02T02:28:29.402Z,88.02
2022-10-02T02:31:01.194Z,87.71
2022-10-02T02:33:36.224Z,87.70
2022-10-02T02:36:11.571Z,87.48
2022-10-02T02:38:47.412Z,87.69
2022-10-02T02:41:21.893Z,87.71
2022-10-02T02:43:56.744Z,87.48
2022-10-02T02:46:30.143Z,87.44
2022-10-02T02:49:05.194Z,87.69
2022-10-02T02:51:39.464Z,87.17
2022-10-02T02:54:14.090Z,86.92
2022-10-02T02:56:45.614Z,87.25
2022-10-02T02:59:16.953Z,86.86
2022-10-02T03:01:45.934Z,86.44
2022-10-02T03:04:16.060Z,86.53
2022-10-02T03:06:47.401Z,86.53
2022-10-02T03:09:20.621Z,86.49
2022-10-02T03:11:59.954Z,86.31
2022-10-02T03:15:07.705Z,85.71
2022-10-02T03:17:52.675Z,85.90
2022-10-02T03:20:31.263Z,85.42
2022-10-02T03:23:09.835Z,85.34
2022-10-02T03:25:44.474Z,85.50
2022-10-02T03:28:37.387Z,85.29
2022-10-02T03:31:12.437Z,85.15
2022-10-02T03:33:42.651Z,84.67
2022-10-02T03:36:12.806Z,84.69
2022-10-02T03:38:43.794Z,85.19
2022-10-02T03:41:12.724Z,84.56
2022-10-02T03:43:41.484Z,84.61
2022-10-02T03:46:11.778Z,85.00
2022-10-02T03:48:40.624Z,85.01
2022-10-02T03:51:09.264Z,84.97
2022-10-02T03:53:38.201Z,84.99
2022-10-02T03:56:10.990Z,85.03
2022-10-02T03:58:46.032Z,85.02
2022-10-02T04:01:22.593Z,85.11
2022-10-02T04:03:55.614Z,85.36
2022-10-02T04:06:29.875Z,85.27
2022-10-02T04:09:04.665Z,85.27
2022-10-02T04:11:37.292Z,85.48
2022-10-02T04:14:13.983Z,85.69
2022-10-02T04:16:50.740Z,85.84
2022-10-02T04:19:24.543Z,85.59
2022-10-02T04:21:57.801Z,85.75
2022-10-02T04:24:33.030Z,86.00
2022-10-02T04:27:08.399Z,85.81
2022-10-02T04:29:41.425Z,86.23
2022-10-02T04:32:16.641Z,86.04
2022-10-02T04:34:45.464Z,86.28
2022-10-02T04:37:38.181Z,86.38
2022-10-02T04:40:31.974Z,86.53
2022-10-02T04:43:22.372Z,86.47
2022-10-02T04:46:09.063Z,86.70
2022-10-02T04:48:59.972Z,86.88
2022-10-02T04:51:44.594Z,86.60
2022-10-02T04:54:33.114Z,86.63
2022-10-02T04:57:24.465Z,86.80
2022-10-02T05:00:13.036Z,87.05
2022-10-02T05:03:05.342Z,87.06
2022-10-02T05:05:56.603Z,86.71
2022-10-02T05:08:43.642Z,86.75
2022-10-02T05:11:35.656Z,87.25
2022-10-02T05:14:36.901Z,87.30
2022-10-02T05:17:23.945Z,87.31
2022-10-02T05:20:06.306Z,87.30
2022-10-02T05:22:58.802Z,87.64
2022-10-02T05:25:54.771Z,87.57
2022-10-02T05:28:48.201Z,87.88
2022-10-02T05:31:30.760Z,87.80
2022-10-02T05:34:11.392Z,87.93
2022-10-02T05:36:51.182Z,88.13
2022-10-02T05:39:27.345Z,88.03
2022-10-02T05:42:08.544Z,88.19
2022-10-02T05:44:41.304Z,88.20
2022-10-02T05:47:16.546Z,88.21
2022-10-02T05:49:52.295Z,88.27
2022-10-02T05:52:27.625Z,88.32
2022-10-02T05:55:01.633Z,88.26
2022-10-02T05:57:38.183Z,88.47
2022-10-02T06:00:18.396Z,88.39
2022-10-02T06:02:58.314Z,88.46
2022-10-02T06:05:34.915Z,88.36
2022-10-02T06:08:08.504Z,88.07
2022-10-02T06:10:42.904Z,87.95
2022-10-02T06:13:20.394Z,87.98
2022-10-02T06:15:54.204Z,87.37
2022-10-02T06:18:26.985Z,87.02
2022-10-02T06:21:00.432Z,86.79
2022-10-02T06:23:37.055Z,86.27
2022-10-02T06:26:11.902Z,86.07
2022-10-02T06:28:45.333Z,85.31
2022-10-02T06:31:22.449Z,85.01
2022-10-02T06:33:53.576Z,84.66
2022-10-02T06:36:45.899Z,84.01
2022-10-02T06:39:30.641Z,83.59
2022-10-02T06:42:14.682Z,83.35
2022-10-02T06:44:54.508Z,83.16
2022-10-02T06:47:36.687Z,82.64
2022-10-02T06:50:28.329Z,82.24
2022-10-02T06:53:05.933Z,81.75
2022-10-02T06:55:45.938Z,81.48
2022-10-02T06:58:31.488Z,81.49
2022-10-02T07:01:10.188Z,80.99
2022-10-02T07:04:01.758Z,81.03
2022-10-02T07:06:41.715Z,80.41
2022-10-02T07:09:35.190Z,80.25
2022-10-02T07:12:18.565Z,79.37
2022-10-02T07:15:04.347Z,78.72
2022-10-02T07:17:50.068Z,78.41
2022-10-02T07:20:43.209Z,77.41
2022-10-02T07:23:32.764Z,76.46
2022-10-02T07:26:07.638Z,75.92
2022-10-02T07:28:43.307Z,75.40
2022-10-02T07:31:23.382Z,75.26
2022-10-02T07:34:07.774Z,74.45
2022-10-02T07:36:49.008Z,72.85
2022-10-02T07:39:33.586Z,72.31
2022-10-02T07:42:24.228Z,71.96
2022-10-02T07:45:25.768Z,71.74
2022-10-02T07:48:19.468Z,71.69
2022-10-02T07:51:02.922Z,71.96
2022-10-02T07:53:40.523Z,71.70
2022-10-02T07:56:20.220Z,71.59
2022-10-02T07:58:55.370Z,71.75
2022-10-02T08:01:27.576Z,70.85
2022-10-02T08:04:00.360Z,70.54
2022-10-02T08:06:30.980Z,70.26
2022-10-02T08:09:04.479Z,69.94
2022-10-02T08:11:38.447Z,69.49
2022-10-02T08:14:12.807Z,69.04
2022-10-02T08:16:46.739Z,68.75
2022-10-02T08:19:18.678Z,68.57
2022-10-02T08:21:55.858Z,68.51
2022-10-02T08:24:28.538Z,68.70
2022-10-02T08:27:02.677Z,68.96
2022-10-02T08:29:41.700Z,68.87
2022-10-02T08:32:12.956Z,67.88
2022-10-02T08:34:44.347Z,67.89
2022-10-02T08:37:32.817Z,67.60
2022-10-02T08:40:30.043Z,67.88
2022-10-02T08:43:21.648Z,66.94
2022-10-02T08:46:08.561Z,66.77
2022-10-02T08:48:56.595Z,67.26
2022-10-02T08:51:56.722Z,66.87
2022-10-02T08:54:49.788Z,66.47
2022-10-02T08:57:46.005Z,66.00
2022-10-02T09:00:23.551Z,65.15
2022-10-02T09:03:34.582Z,64.38
2022-10-02T09:06:32.302Z,64.17
2022-10-02T09:09:39.221Z,63.82
2022-10-02T09:12:33.404Z,63.39
2022-10-02T09:15:16.162Z,63.42
2022-10-02T09:17:49.224Z,63.45
2022-10-02T09:20:53.512Z,63.08
2022-10-02T09:23:52.969Z,62.29
2022-10-02T09:26:27.310Z,61.84
2022-10-02T09:29:31.371Z,61.33
2022-10-02T09:32:27.211Z,61.20
2022-10-02T09:35:23.304Z,61.33
2022-10-02T09:38:21.405Z,60.45
2022-10-02T09:41:21.439Z,60.16
2022-10-02T09:44:24.232Z,59.15
2022-10-02T09:47:21.603Z,59.52
2022-10-02T09:50:28.131Z,59.35
2022-10-02T09:53:18.702Z,59.25
2022-10-02T09:56:13.063Z,58.17
2022-10-02T09:59:11.925Z,58.96
2022-10-02T10:02:04.156Z,58.61
2022-10-02T10:05:07.987Z,57.78
2022-10-02T10:08:04.473Z,57.47
2022-10-02T10:11:00.848Z,57.90
2022-10-02T10:14:00.424Z,58.00
2022-10-02T10:17:09.339Z,57.73
2022-10-02T10:20:03.907Z,56.55
2022-10-02T10:22:57.795Z,57.35
2022-10-02T10:25:51.853Z,58.04
2022-10-02T10:28:55.772Z,57.73
2022-10-02T10:31:59.784Z,57.46
2022-10-02T10:35:05.744Z,56.08
2022-10-02T10:38:09.024Z,56.33
2022-10-02T10:40:54.913Z,56.00
2022-10-02T10:44:05.047Z,55.03
2022-10-02T10:46:59.485Z,54.94
2022-10-02T10:50:02.946Z,55.80
2022-10-02T10:52:52.311Z,56.21
2022-10-02T10:55:35.896Z,56.79
2022-10-02T10:58:21.416Z,56.43
2022-10-02T11:01:07.232Z,56.34
2022-10-02T11:03:58.663Z,56.97
2022-10-02T11:06:52.267Z,57.07
2022-10-02T11:09:42.327Z,57.29
2022-10-02T11:12:33.466Z,57.12
2022-10-02T11:15:21.163Z,56.64
2022-10-02T11:18:06.940Z,57.24
2022-10-02T11:21:07.618Z,57.53
2022-10-02T11:23:52.144Z,58.11
2022-10-02T11:26:41.055Z,58.76
2022-10-02T11:29:43.799Z,58.58
2022-10-02T11:32:35.094Z,58.86
2022-10-02T11:35:23.596Z,58.08
2022-10-02T11:38:10.736Z,57.16
2022-10-02T11:40:54.239Z,56.94
2022-10-02T11:43:45.148Z,55.83
2022-10-02T11:46:33.695Z,55.05
2022-10-02T11:49:29.679Z,53.96
2022-10-02T11:52:22.560Z,53.79
2022-10-02T11:55:06.008Z,53.88
2022-10-02T11:57:50.681Z,53.17
2022-10-02T12:00:57.223Z,53.75
2022-10-02T12:03:37.313Z,55.12
2022-10-02T12:06:15.547Z,56.68
2022-10-02T12:08:55.945Z,58.29
2022-10-02T12:11:35.143Z,59.66
2022-10-02T12:14:11.455Z,61.13
2022-10-02T12:16:56.235Z,61.85
2022-10-02T12:20:01.405Z,62.27
2022-10-02T12:22:59.536Z,62.46
2022-10-02T12:25:45.755Z,62.91
2022-10-02T12:28:24.043Z,63.41
2022-10-02T12:31:05.529Z,63.19
2022-10-02T12:33:47.129Z,63.01
2022-10-02T12:36:34.597Z,63.09
2022-10-02T12:39:22.157Z,62.63
2022-10-02T12:42:07.967Z,62.53
2022-10-02T12:45:02.696Z,62.34
2022-10-02T12:47:52.059Z,61.73
2022-10-02T12:50:34.370Z,61.18
2022-10-02T12:53:31.418Z,60.03
2022-10-02T12:56:23.128Z,59.76
2022-10-02T12:59:02.410Z,60.26
2022-10-02T13:02:10.779Z,60.59
2022-10-02T13:05:02.629Z,60.39
2022-10-02T13:07:52.607Z,60.34
2022-10-02T13:10:24.682Z,60.69
2022-10-02T13:13:14.000Z,60.98
2022-10-02T13:15:54.026Z,61.07
2022-10-02T13:18:44.497Z,61.32
2022-10-02T13:21:20.097Z,61.25
2022-10-02T13:24:00.691Z,61.43
2022-10-02T13:26:38.561Z,61.35
2022-10-02T13:29:26.218Z,61.38
2022-10-02T13:32:12.171Z,61.94
2022-10-02T13:34:55.961Z,62.64
2022-10-02T13:37:51.937Z,62.69
2022-10-02T13:40:28.752Z,63.12
2022-10-02T13:43:19.791Z,63.29
2022-10-02T13:45:54.430Z,63.66
2022-10-02T13:48:38.163Z,63.95
2022-10-02T13:51:10.665Z,64.32
2022-10-02T13:53:53.568Z,65.06
2022-10-02T13:56:37.578Z,65.24
2022-10-02T13:59:24.609Z,65.34
2022-10-02T14:02:23.479Z,65.57
2022-10-02T14:05:00.762Z,65.91
2022-10-02T14:07:58.727Z,66.05
2022-10-02T14:10:40.220Z,66.53
2022-10-02T14:13:25.435Z,66.46
2022-10-02T14:16:09.927Z,66.64
2022-10-02T14:19:04.190Z,67.12
2022-10-02T14:21:38.967Z,67.18
2022-10-02T14:24:46.627Z,67.34
2022-10-02T14:27:25.443Z,67.51
2022-10-02T14:30:01.719Z,67.38
2022-10-02T14:32:48.774Z,67.30
2022-10-02T14:35:34.586Z,67.39
2022-10-02T14:38:41.753Z,67.35
2022-10-02T14:41:31.295Z,67.31
2022-10-02T14:44:23.483Z,67.37
2022-10-02T14:47:15.308Z,67.59
2022-10-02T14:50:10.312Z,68.20
2022-10-02T14:52:59.664Z,68.42
2022-10-02T14:55:42.935Z,68.73
2022-10-02T14:58:29.155Z,68.89
2022-10-02T15:01:29.846Z,69.02
2022-10-02T15:04:19.546Z,69.69
2022-10-02T15:06:57.992Z,69.60
2022-10-02T15:09:34.843Z,70.09
2022-10-02T15:12:15.642Z,70.18
2022-10-02T15:14:58.294Z,70.57
2022-10-02T15:17:51.318Z,70.82
2022-10-02T15:20:41.499Z,71.87
2022-10-02T15:23:13.995Z,71.66
2022-10-02T15:26:04.667Z,71.96
2022-10-02T15:28:49.374Z,72.53
2022-10-02T15:31:28.126Z,73.83
2022-10-02T15:34:10.357Z,75.25
2022-10-02T15:36:59.094Z,76.79
2022-10-02T15:39:49.235Z,77.25
2022-10-02T15:42:30.033Z,78.22
2022-10-02T15:45:14.095Z,78.60
2022-10-02T15:48:10.364Z,79.47
2022-10-02T15:50:50.238Z,79.92
2022-10-02T15:53:39.849Z,80.53
2022-10-02T15:56:21.902Z,81.02
2022-10-02T15:59:05.598Z,81.59
2022-10-02T16:01:48.203Z,82.11
2022-10-02T16:04:34.415Z,82.64
2022-10-02T16:07:25.053Z,83.15
2022-10-02T16:10:05.485Z,83.62
2022-10-02T16:13:03.242Z,83.45
2022-10-02T16:15:49.286Z,84.29
2022-10-02T16:18:42.593Z,84.56
2022-10-02T16:21:40.828Z,84.84
2022-10-02T16:24:36.857Z,84.87
2022-10-02T16:27:28.110Z,85.55
2022-10-02T16:30:12.257Z,85.84
2022-10-02T16:32:59.626Z,85.66
2022-10-02T16:35:54.189Z,85.92
2022-10-02T16:38:36.842Z,86.46
2022-10-02T16:41:19.411Z,86.54
2022-10-02T16:44:03.755Z,86.35
2022-10-02T16:46:38.550Z,86.37
2022-10-02T16:49:19.186Z,86.44
2022-10-02T16:51:56.974Z,86.39
2022-10-02T16:54:39.556Z,86.97
2022-10-02T16:57:22.482Z,87.16
2022-10-02T17:00:00.089Z,87.19
2022-10-02T17:02:43.650Z,87.43
2022-10-02T17:05:26.295Z,87.52
2022-10-02T17:08:03.546Z,87.71
2022-10-02T17:10:41.243Z,87.90
2022-10-02T17:13:26.417Z,87.88
2022-10-02T17:16:00.668Z,88.31
2022-10-02T17:18:39.029Z,88.25
2022-10-02T17:21:14.927Z,88.53
2022-10-02T17:23:54.382Z,88.44
2022-10-02T17:26:34.798Z,88.67
2022-10-02T17:29:15.678Z,88.75
2022-10-02T17:31:52.269Z,88.88
2022-10-02T17:34:24.735Z,88.83
2022-10-02T17:37:08.117Z,89.34
2022-10-02T17:39:49.935Z,89.28
2022-10-02T17:42:31.796Z,89.04
2022-10-02T17:45:16.894Z,89.25
2022-10-02T17:47:58.734Z,89.46
2022-10-02T17:50:45.249Z,88.97
2022-10-02T17:53:44.899Z,89.30
2022-10-02T17:56:35.407Z,88.85
2022-10-02T17:59:33.284Z,89.17
2022-10-02T18:02:14.981Z,88.72
2022-10-02T18:04:59.617Z,88.74
2022-10-02T18:07:46.066Z,88.87
2022-10-02T18:10:28.114Z,88.46
2022-10-02T18:13:33.260Z,88.47
2022-10-02T18:16:16.230Z,88.31
2022-10-02T18:19:07.846Z,88.44
2022-10-02T18:21:47.899Z,88.33
2022-10-02T18:24:32.214Z,88.81
2022-10-02T18:27:24.411Z,89.05
2022-10-02T18:30:09.023Z,88.72
2022-10-02T18:33:31.979Z,89.08
2022-10-02T18:36:19.476Z,88.97
2022-10-02T18:39:02.941Z,89.10
2022-10-02T18:41:50.967Z,89.31
2022-10-02T18:44:38.822Z,89.01
2022-10-02T18:47:20.005Z,89.05
2022-10-02T18:50:11.983Z,89.22
2022-10-02T18:52:54.617Z,89.58
2022-10-02T18:55:41.030Z,89.09
2022-10-02T18:58:21.668Z,89.00
2022-10-02T19:01:14.873Z,89.56
2022-10-02T19:04:03.608Z,89.16
2022-10-02T19:06:36.183Z,89.38
2022-10-02T19:09:20.524Z,89.79
2022-10-02T19:11:57.035Z,89.64
2022-10-02T19:14:35.365Z,89.41
2022-10-02T19:17:08.934Z,89.49
2022-10-02T19:19:40.027Z,89.88
2022-10-02T19:22:19.565Z,89.68
2022-10-02T19:24:49.666Z,89.88
2022-10-02T19:27:24.936Z,89.83
2022-10-02T19:29:57.989Z,90.17
2022-10-02T19:32:32.178Z,90.07
2022-10-02T19:35:09.175Z,90.50
2022-10-02T19:37:45.385Z,90.21
2022-10-02T19:40:19.627Z,90.21
2022-10-02T19:42:53.014Z,90.41
2022-10-02T19:45:26.967Z,90.31
2022-10-02T19:47:59.985Z,89.90
2022-10-02T19:50:41.447Z,90.03
2022-10-02T19:53:24.686Z,89.43
2022-10-02T19:55:57.445Z,89.50
2022-10-02T19:58:33.479Z,88.70
2022-10-02T20:01:03.170Z,88.60
2022-10-02T20:03:33.014Z,88.39
2022-10-02T20:06:10.947Z,87.82
2022-10-02T20:08:46.245Z,88.03
2022-10-02T20:11:22.582Z,87.60
2022-10-02T20:13:56.486Z,87.86
2022-10-02T20:16:36.633Z,87.41
2022-10-02T20:19:07.737Z,87.25
2022-10-02T20:21:41.198Z,87.34
2022-10-02T20:24:21.578Z,87.30
2022-10-02T20:26:54.238Z,87.17
2022-10-02T20:29:28.016Z,87.55
2022-10-02T20:32:04.469Z,87.42
2022-10-02T20:34:39.374Z,87.26
2022-10-02T20:37:13.860Z,87.10
2022-10-02T20:39:50.993Z,86.96
2022-10-02T20:42:24.539Z,87.12
2022-10-02T20:44:53.348Z,87.04
2022-10-02T20:47:50.657Z,86.83
2022-10-02T20:50:47.256Z,86.98
2022-10-02T20:53:38.808Z,86.52
2022-10-02T20:56:22.735Z,86.76
2022-10-02T20:59:13.667Z,86.38
2022-10-02T21:01:55.336Z,86.68
2022-10-02T21:04:45.478Z,86.34
2022-10-02T21:07:53.067Z,86.51
2022-10-02T21:10:45.358Z,86.54
2022-10-02T21:13:38.965Z,86.64
2022-10-02T21:16:42.318Z,86.84
2022-10-02T21:19:37.118Z,86.67
2022-10-02T21:22:35.835Z,87.11
2022-10-02T21:25:27.326Z,86.73
2022-10-02T21:28:32.476Z,87.18
2022-10-02T21:31:15.861Z,86.73
2022-10-02T21:34:00.236Z,86.63
2022-10-02T21:36:34.347Z,87.01
2022-10-02T21:39:35.706Z,86.60
2022-10-02T21:42:25.375Z,86.59
2022-10-02T21:45:24.998Z,86.54
2022-10-02T21:48:09.427Z,86.47
2022-10-02T21:51:06.567Z,86.49
2022-10-02T21:54:07.276Z,86.68
2022-10-02T21:56:58.314Z,87.04
2022-10-02T21:59:50.234Z,86.68
2022-10-02T22:02:39.003Z,86.91
2022-10-02T22:05:36.647Z,87.15
2022-10-02T22:08:18.609Z,87.15
2022-10-02T22:10:59.116Z,87.08
2022-10-02T22:13:34.103Z,87.20
2022-10-02T22:16:18.408Z,87.17
2022-10-02T22:18:54.106Z,87.33
2022-10-02T22:21:43.365Z,87.17
2022-10-02T22:24:40.195Z,87.19
2022-10-02T22:27:31.653Z,87.58
2022-10-02T22:30:00.465Z,87.51
2022-10-02T22:32:57.846Z,87.39
2022-10-02T22:35:34.798Z,87.48
2022-10-02T22:38:15.774Z,87.78
2022-10-02T22:40:51.614Z,87.46
2022-10-02T22:43:30.475Z,87.85
2022-10-02T22:46:04.067Z,87.52
2022-10-02T22:48:41.468Z,87.38
2022-10-02T22:51:20.347Z,87.32
2022-10-02T22:53:54.804Z,87.25
2022-10-02T22:56:32.965Z,87.12
2022-10-02T22:59:11.756Z,87.25
2022-10-02T23:01:47.706Z,87.20
2022-10-02T23:04:29.214Z,86.91
2022-10-02T23:07:05.807Z,86.85
2022-10-02T23:09:44.517Z,86.72
2022-10-02T23:12:18.425Z,86.73
2022-10-02T23:14:58.895Z,86.84
2022-10-02T23:17:33.077Z,86.83
2022-10-02T23:20:11.547Z,86.92
2022-10-02T23:22:49.306Z,86.98
2022-10-02T23:25:24.737Z,86.99
2022-10-02T23:28:01.787Z,86.58
2022-10-02T23:30:36.147Z,86.48
2022-10-02T23:33:15.235Z,86.59
2022-10-02T23:35:54.218Z,86.61
2022-10-02T23:38:31.175Z,86.60
2022-10-02T23:41:18.411Z,86.48
2022-10-02T23:43:57.973Z,86.36
2022-10-02T23:46:32.536Z,86.58
2022-10-02T23:49:01.414Z,86.71
2022-10-02T23:51:42.365Z,86.56
2022-10-02T23:54:39.114Z,86.55
2022-10-02T23:57:39.176Z,86.70
